Rechercher aéroport 
image banner adimage banner adimage banner ad
image banner ad

KSIY - Siskiyou County

Situé à Montague, United States

ICAO - SIY, IATA -

Données fournies par Airmate  

Information générale

Coordonnées: N41°46'53" W122°28'5"
Élévation : 2651 feet MSL.
Variation magnétique : 19° East
Voir autres Aéroports à California

Données opérationnelles

Special qualification required
Heure actuelle UTC:
Heure actuelle locale:
Météo
METAR: KSIY 191053Z AUTO 03004KT 10SM CLR 01/00 A2997 RMK AO2 SLP162 T00110000
Voir NOTAMs / SUP AIP / TFR affectant cet aéroport [VIEW]
Fréquences de communication: [VIEW]

Pistes:

Identifiant RWYQFULongueur (ft)Largeur (ft)SurfaceLDA (ft)
17191°7490150ASPH
3511°7490150ASPH

Coordonnées de l'aéroport

Adresse: Montague United States

Vue satellite de KSIY